METAR Data

Data at: 0527 UTC 18 Oct 2018

METAR for:EGLF (Farnborough Arpt, --, UK)
Text:No data found

TAF for:EGLF (Farnborough Arpt, --, UK)
Text:No data found

METAR for:EGUB (Benson(RAF), --, UK)
Text:EGUB 180450Z AUTO 36003KT 9000 // SCT008/// 08/07 Q1026
Temperature: 8.0°C ( 46°F)
Dewpoint: 7.0°C ( 45°F) [RH = 93%]
Pressure (altimeter):30.30 inches Hg (1026.0 mb)
Winds:from the N (360 degrees) at 3 MPH (3 knots; 1.5 m/s)
Visibility: 6 sm ( 9 km)
Ceiling:at least 12,000 feet AGL
Clouds: scattered clouds at 800 feet AGL

TAF for:EGUB (Benson(RAF), --, UK) issued at 1909 UTC 17 Oct 2018
Text:TAF COR EGUB 171909Z 1719/1723 03003KT 9999 BKN040
Forecast period:1900 to 2300 UTC 17 October 2018
Forecast type:FROM: standard forecast or significant change
Winds:from the NNE (30 degrees) at 3 MPH (3 knots; 1.5 m/s)
Visibility:6 or more sm (10+ km)
Ceiling:4000 feet AGL
Clouds: broken clouds at 4000 feet AGL

METAR for:EGVO (Odiham(RAF), --, UK)
Text:EGVO 180450Z 01005KT 9000 BR OVC060 10/10 Q1025 BLU
Temperature: 10.0°C ( 50°F)
Dewpoint: 10.0°C ( 50°F) [RH = 100%]
Pressure (altimeter):30.27 inches Hg (1025.0 mb)
Winds:from the N (10 degrees) at 6 MPH (5 knots; 2.6 m/s)
Visibility: 6 sm ( 9 km)
Ceiling:6000 feet AGL
Clouds: overcast cloud deck at 6000 feet AGL
Weather:BR (mist)

TAF for:EGVO (Odiham(RAF), --, UK) issued at 0427 UTC 18 Oct 2018
Text:TAF EGVO 180427Z 1806/1818 05008KT 9999 SCT025
Forecast period:0600 to 1800 UTC 18 October 2018
Forecast type:FROM: standard forecast or significant change
Winds:from the NE (50 degrees) at 9 MPH (8 knots; 4.1 m/s)
Visibility:6 or more sm (10+ km)
Ceiling:at least 12,000 feet AGL
Clouds: scattered clouds at 2500 feet AGL
Text:TEMPO 1806/1809 BKN012
Forecast period:0600 to 0900 UTC 18 October 2018
Forecast type:TEMPORARY: The following changes expected for less than half the time period
Ceiling:1200 feet AGL
Clouds: broken clouds at 1200 feet AGL
Text:PROB30
Forecast period:0600 to 0800 UTC 18 October 2018
Forecast type:TEMPORARY: The following changes expected for less than half the time period
Visibility: 4 sm ( 6 km)
Ceiling:at least 12,000 feet AGL
Clouds: scattered clouds at 500 feet AGL
Weather:HZ (haze)
Text:TEMPO 1806/1808 6000 HZ SCT005
Forecast period:0900 to 1100 UTC 18 October 2018
Forecast type:TEMPORARY: The following changes expected for less than half the time period
Ceiling:at least 12,000 feet AGL
Clouds: scattered clouds at 2000 feet AGL

METAR for:EGTK (Oxford Arpt, --, UK)
Text:EGTK 180520Z 34005KT CAVOK 07/06 Q1026
Temperature: 7.0°C ( 45°F)
Dewpoint: 6.0°C ( 43°F) [RH = 93%]
Pressure (altimeter):30.30 inches Hg (1026.0 mb)
Winds:from the NNW (340 degrees) at 6 MPH (5 knots; 2.6 m/s)
Visibility:6 or more sm (10+ km)
Ceiling:ceiling and visibility are OK
Clouds:unknown

TAF for:EGTK (Oxford Arpt, --, UK)
Text:No data found

METAR for:EGHH (Bournemouth Intl, --, UK)
Text:EGHH 180520Z 02007KT 9999 FEW045 10/10 Q1025
Temperature: 10.0°C ( 50°F)
Dewpoint: 10.0°C ( 50°F) [RH = 100%]
Pressure (altimeter):30.27 inches Hg (1025.0 mb)
Winds:from the NNE (20 degrees) at 8 MPH (7 knots; 3.6 m/s)
Visibility:6 or more sm (10+ km)
Ceiling:at least 12,000 feet AGL
Clouds: few clouds at 4500 feet AGL

TAF for:EGHH (Bournemouth Intl, --, UK) issued at 0526 UTC 18 Oct 2018
Text:TAF EGHH 180526Z 1806/1815 04006KT 9999 FEW030
Forecast period:0600 to 1500 UTC 18 October 2018
Forecast type:FROM: standard forecast or significant change
Winds:from the NE (40 degrees) at 7 MPH (6 knots; 3.1 m/s)
Visibility:6 or more sm (10+ km)
Ceiling:at least 12,000 feet AGL
Clouds: few clouds at 3000 feet AGL
Text:PROB30
Forecast period:0600 to 1000 UTC 18 October 2018
Forecast type:TEMPORARY: The following changes expected for less than half the time period
Ceiling:1200 feet AGL
Clouds: broken clouds at 1200 feet AGL

METAR for:
Text:No data found

TAF for:
Text:No data found